createdAt,value
2022-10-22T00:00:11.374Z,46.24
2022-10-22T00:02:38.353Z,46.29
2022-10-22T00:05:05.839Z,46.57
2022-10-22T00:07:33.208Z,45.98
2022-10-22T00:10:00.038Z,46.58
2022-10-22T00:12:27.628Z,46.38
2022-10-22T00:14:54.487Z,45.83
2022-10-22T00:17:21.469Z,45.69
2022-10-22T00:19:48.220Z,45.75
2022-10-22T00:22:15.074Z,46.18
2022-10-22T00:24:42.441Z,46.26
2022-10-22T00:27:10.882Z,46.32
2022-10-22T00:29:37.791Z,46.35
2022-10-22T00:32:05.597Z,46.11
2022-10-22T00:34:32.588Z,47.37
2022-10-22T00:36:59.374Z,47.49
2022-10-22T00:39:27.567Z,49.33
2022-10-22T00:41:55.944Z,48.65
2022-10-22T00:45:00.401Z,48.12
2022-10-22T00:47:37.315Z,48.72
2022-10-22T00:50:09.108Z,48.01
2022-10-22T00:52:36.526Z,48.46
2022-10-22T00:55:03.818Z,48.21
2022-10-22T00:57:31.020Z,49.41
2022-10-22T00:59:58.483Z,51.37
2022-10-22T01:02:25.539Z,49.37
2022-10-22T01:04:52.736Z,49.38
2022-10-22T01:07:22.608Z,49.80
2022-10-22T01:10:14.011Z,49.28
2022-10-22T01:12:50.941Z,49.72
2022-10-22T01:15:48.277Z,48.88
2022-10-22T01:18:44.687Z,48.80
2022-10-22T01:21:31.634Z,48.51
2022-10-22T01:24:07.401Z,48.94
2022-10-22T01:26:52.927Z,50.47
2022-10-22T01:29:29.626Z,51.25
2022-10-22T01:32:02.955Z,49.67
2022-10-22T01:34:31.954Z,48.68
2022-10-22T01:37:00.408Z,47.70
2022-10-22T01:39:29.562Z,48.23
2022-10-22T01:41:58.505Z,48.16
2022-10-22T01:44:27.811Z,48.02
2022-10-22T01:47:32.990Z,47.24
2022-10-22T01:50:31.635Z,47.36
2022-10-22T01:53:09.571Z,47.61
2022-10-22T01:55:48.434Z,47.23
2022-10-22T01:58:47.623Z,47.48
2022-10-22T02:01:28.304Z,47.22
2022-10-22T02:04:09.326Z,48.06
2022-10-22T02:06:38.559Z,47.66
2022-10-22T02:09:07.670Z,50.05
2022-10-22T02:11:35.138Z,49.70
2022-10-22T02:14:04.861Z,49.19
2022-10-22T02:16:36.707Z,48.29
2022-10-22T02:19:10.647Z,49.59
2022-10-22T02:21:37.923Z,50.08
2022-10-22T02:24:05.020Z,50.66
2022-10-22T02:26:40.303Z,49.17
2022-10-22T02:29:11.444Z,49.06
2022-10-22T02:31:43.404Z,49.49
2022-10-22T02:34:19.275Z,48.95
2022-10-22T02:36:50.332Z,48.27
2022-10-22T02:39:20.529Z,48.27
2022-10-22T02:41:47.843Z,47.84
2022-10-22T02:44:14.800Z,47.84
2022-10-22T02:46:43.578Z,47.68
2022-10-22T02:49:10.481Z,47.82
2022-10-22T02:51:37.252Z,49.07
2022-10-22T02:54:04.030Z,50.05
2022-10-22T02:56:30.927Z,49.88
2022-10-22T02:58:57.996Z,48.88
2022-10-22T03:01:24.854Z,48.58
2022-10-22T03:03:51.676Z,51.40
2022-10-22T03:06:18.445Z,52.32
2022-10-22T03:08:46.899Z,50.32
2022-10-22T03:11:13.628Z,50.13
2022-10-22T03:13:40.417Z,51.57
2022-10-22T03:16:07.204Z,50.96
2022-10-22T03:18:34.256Z,50.80
2022-10-22T03:21:19.468Z,50.12
2022-10-22T03:23:47.970Z,49.14
2022-10-22T03:26:15.220Z,49.21
2022-10-22T03:28:42.500Z,48.93
2022-10-22T03:31:09.588Z,48.49
2022-10-22T03:33:36.425Z,48.50
2022-10-22T03:36:03.590Z,48.20
2022-10-22T03:38:30.788Z,47.92
2022-10-22T03:40:58.382Z,48.00
2022-10-22T03:43:25.186Z,48.12
2022-10-22T03:45:51.964Z,48.10
2022-10-22T03:48:18.861Z,47.83
2022-10-22T03:50:45.646Z,48.00
2022-10-22T03:53:12.406Z,47.72
2022-10-22T03:55:41.244Z,47.76
2022-10-22T03:58:07.996Z,47.13
2022-10-22T04:00:35.792Z,47.39
2022-10-22T04:03:02.798Z,48.22
2022-10-22T04:05:29.533Z,47.70
2022-10-22T04:07:56.271Z,47.42
2022-10-22T04:10:23.026Z,48.10
2022-10-22T04:12:50.027Z,48.35
2022-10-22T04:15:17.038Z,48.23
2022-10-22T04:17:44.052Z,48.03
2022-10-22T04:20:11.218Z,48.24
2022-10-22T04:22:38.107Z,47.93
2022-10-22T04:25:05.468Z,48.27
2022-10-22T04:27:33.355Z,48.42
2022-10-22T04:30:00.290Z,48.21
2022-10-22T04:32:28.157Z,48.51
2022-10-22T04:34:55.031Z,48.39
2022-10-22T04:37:22.031Z,48.29
2022-10-22T04:39:49.169Z,48.31
2022-10-22T04:42:16.093Z,48.27
2022-10-22T04:44:42.830Z,48.28
2022-10-22T04:47:09.709Z,48.99
2022-10-22T04:49:36.504Z,48.82
2022-10-22T04:52:03.576Z,47.96
2022-10-22T04:54:32.971Z,48.21
2022-10-22T04:57:00.253Z,48.77
2022-10-22T04:59:26.984Z,48.75
2022-10-22T05:01:53.892Z,48.48
2022-10-22T05:04:20.585Z,48.59
2022-10-22T05:06:47.627Z,48.20
2022-10-22T05:09:17.368Z,48.24
2022-10-22T05:11:48.312Z,48.62
2022-10-22T05:14:18.343Z,48.44
2022-10-22T05:16:48.263Z,48.34
2022-10-22T05:19:24.137Z,47.96
2022-10-22T05:21:55.299Z,48.21
2022-10-22T05:24:22.651Z,48.57
2022-10-22T05:26:54.010Z,48.51
2022-10-22T05:29:21.680Z,48.24
2022-10-22T05:31:48.477Z,47.99
2022-10-22T05:34:15.479Z,48.23
2022-10-22T05:36:42.475Z,48.69
2022-10-22T05:39:09.478Z,48.46
2022-10-22T05:41:36.708Z,52.17
2022-10-22T05:44:04.083Z,51.23
2022-10-22T05:46:34.673Z,50.93
2022-10-22T05:49:06.210Z,51.22
2022-10-22T05:51:36.253Z,51.55
2022-10-22T05:54:06.541Z,51.99
2022-10-22T05:56:34.303Z,53.06
2022-10-22T06:01:35.590Z,50.94
2022-10-22T06:04:07.271Z,49.27
2022-10-22T06:06:54.333Z,49.91
2022-10-22T06:12:10.867Z,48.58
2022-10-22T06:14:37.683Z,50.57
2022-10-22T06:17:04.459Z,50.85
2022-10-22T06:19:31.390Z,49.82
2022-10-22T06:21:58.560Z,50.58
2022-10-22T06:24:25.369Z,49.50
2022-10-22T06:26:52.688Z,50.25
2022-10-22T06:29:19.786Z,50.79
2022-10-22T06:31:46.496Z,49.95
2022-10-22T06:34:14.549Z,50.16
2022-10-22T06:36:44.546Z,49.81
2022-10-22T06:39:13.196Z,49.08
2022-10-22T06:41:40.720Z,50.84
2022-10-22T06:44:07.985Z,50.62
2022-10-22T06:46:36.093Z,50.59
2022-10-22T06:49:05.787Z,49.81
2022-10-22T06:51:32.633Z,49.38
2022-10-22T06:53:59.475Z,48.49
2022-10-22T06:56:29.287Z,49.64
2022-10-22T06:58:57.747Z,49.10
2022-10-22T07:01:27.676Z,47.62
2022-10-22T07:03:54.884Z,48.54
2022-10-22T07:06:22.664Z,48.96
2022-10-22T07:08:49.757Z,48.06
2022-10-22T07:11:21.497Z,47.34
2022-10-22T07:13:48.941Z,46.70
2022-10-22T07:16:17.696Z,46.21
2022-10-22T07:18:45.296Z,44.96
2022-10-22T07:21:13.835Z,44.87
2022-10-22T07:23:40.976Z,45.91
2022-10-22T07:26:08.719Z,47.64
2022-10-22T07:28:38.835Z,47.78
2022-10-22T07:31:12.062Z,47.37
2022-10-22T07:33:40.320Z,46.37
2022-10-22T07:36:10.330Z,45.02
2022-10-22T07:38:37.436Z,44.89
2022-10-22T07:41:04.792Z,44.84
2022-10-22T07:43:31.559Z,47.33
2022-10-22T07:45:59.715Z,46.46
2022-10-22T07:48:26.565Z,46.49
2022-10-22T07:50:53.648Z,45.77
2022-10-22T07:53:21.362Z,45.52
2022-10-22T07:55:50.079Z,46.01
2022-10-22T07:58:18.260Z,45.07
2022-10-22T08:00:45.686Z,43.51
2022-10-22T08:03:15.341Z,43.58
2022-10-22T08:05:43.937Z,43.36
2022-10-22T08:08:15.313Z,42.62
2022-10-22T08:10:43.046Z,41.86
2022-10-22T08:13:09.784Z,42.29
2022-10-22T08:15:36.912Z,41.52
2022-10-22T08:18:03.772Z,41.02
2022-10-22T08:20:30.696Z,40.76
2022-10-22T08:22:58.635Z,38.81
2022-10-22T08:25:25.838Z,38.14
2022-10-22T08:27:52.736Z,39.60
2022-10-22T08:30:20.011Z,41.22
2022-10-22T08:32:49.303Z,41.83
2022-10-22T08:35:18.515Z,41.73
2022-10-22T08:37:45.177Z,41.88
2022-10-22T08:40:26.059Z,41.17
2022-10-22T08:43:07.703Z,40.69
2022-10-22T08:46:02.153Z,40.62
2022-10-22T08:48:38.376Z,39.89
2022-10-22T08:51:05.897Z,40.14
2022-10-22T08:54:04.546Z,39.08
2022-10-22T08:56:35.048Z,39.16
2022-10-22T08:59:14.916Z,37.75
2022-10-22T09:01:51.286Z,38.41
2022-10-22T09:04:34.267Z,37.19
2022-10-22T09:07:01.207Z,38.07
2022-10-22T09:09:35.134Z,37.79
2022-10-22T09:12:05.060Z,36.95
2022-10-22T09:14:31.934Z,35.63
2022-10-22T09:17:35.479Z,35.88
2022-10-22T09:20:16.076Z,37.57
2022-10-22T09:22:53.028Z,36.00
2022-10-22T09:25:32.689Z,35.93
2022-10-22T09:27:59.599Z,36.49
2022-10-22T09:30:33.441Z,35.64
2022-10-22T09:33:06.562Z,34.86
2022-10-22T09:35:44.843Z,35.27
2022-10-22T09:38:14.321Z,36.18
2022-10-22T09:40:50.787Z,35.95
2022-10-22T09:43:18.666Z,35.79
2022-10-22T09:45:46.630Z,35.59
2022-10-22T09:48:34.462Z,35.31
2022-10-22T09:51:20.833Z,35.29
2022-10-22T09:54:01.648Z,35.41
2022-10-22T09:56:37.827Z,34.26
2022-10-22T09:59:04.652Z,34.33
2022-10-22T10:01:38.514Z,35.95
2022-10-22T10:04:09.864Z,35.48
2022-10-22T10:06:40.382Z,36.12
2022-10-22T10:09:17.540Z,34.77
2022-10-22T10:12:04.551Z,35.14
2022-10-22T10:14:47.656Z,34.66
2022-10-22T10:18:03.893Z,34.31
2022-10-22T10:20:45.010Z,34.10
2022-10-22T10:23:27.015Z,34.83
2022-10-22T10:26:42.020Z,33.81
2022-10-22T10:29:27.557Z,35.55
2022-10-22T10:32:06.537Z,34.01
2022-10-22T10:34:54.191Z,33.59
2022-10-22T10:37:28.135Z,33.53
2022-10-22T10:40:16.303Z,34.60
2022-10-22T10:43:00.640Z,33.81
2022-10-22T10:46:01.823Z,33.34
2022-10-22T10:48:47.490Z,33.75
2022-10-22T10:51:26.001Z,33.42
2022-10-22T10:53:55.910Z,34.84
2022-10-22T10:56:44.742Z,34.16
2022-10-22T10:59:14.168Z,34.09
2022-10-22T11:02:11.185Z,32.72
2022-10-22T11:04:47.033Z,33.27
2022-10-22T11:07:30.316Z,32.87
2022-10-22T11:10:10.191Z,33.19
2022-10-22T11:12:42.701Z,33.31
2022-10-22T11:15:32.157Z,33.13
2022-10-22T11:18:16.900Z,31.55
2022-10-22T11:20:56.198Z,30.72
2022-10-22T11:23:36.012Z,30.77
2022-10-22T11:26:08.040Z,31.66
2022-10-22T11:28:54.919Z,31.48
2022-10-22T11:31:25.352Z,31.09
2022-10-22T11:34:33.279Z,32.06
2022-10-22T11:37:03.040Z,31.12
2022-10-22T11:39:53.724Z,31.48
2022-10-22T11:42:34.333Z,30.79
2022-10-22T11:45:05.906Z,31.55
2022-10-22T11:47:59.836Z,30.24
2022-10-22T11:50:43.280Z,31.46
2022-10-22T11:53:13.154Z,31.37
2022-10-22T11:55:48.955Z,30.17
2022-10-22T11:58:39.260Z,29.96
2022-10-22T12:01:09.894Z,29.32
2022-10-22T12:03:59.552Z,30.22
2022-10-22T12:06:27.909Z,28.81
2022-10-22T12:08:54.840Z,27.85
2022-10-22T12:11:50.422Z,27.80
2022-10-22T12:14:29.580Z,28.29
2022-10-22T12:17:13.106Z,26.52
2022-10-22T12:19:41.551Z,27.82
2022-10-22T12:22:19.439Z,26.66
2022-10-22T12:24:52.435Z,26.41
2022-10-22T12:27:26.483Z,26.10
2022-10-22T12:29:55.661Z,25.66
2022-10-22T12:32:23.230Z,24.84
2022-10-22T12:34:52.214Z,25.28
2022-10-22T12:37:20.548Z,25.50
2022-10-22T12:39:48.549Z,24.76
2022-10-22T12:42:17.815Z,24.05
2022-10-22T12:44:45.370Z,24.71
2022-10-22T12:47:18.464Z,23.55
2022-10-22T12:49:51.445Z,24.26
2022-10-22T12:52:22.831Z,23.06
2022-10-22T12:54:52.634Z,22.28
2022-10-22T12:57:20.356Z,23.34
2022-10-22T12:59:50.667Z,23.11
2022-10-22T13:02:21.331Z,22.52
2022-10-22T13:05:14.947Z,22.31
2022-10-22T13:07:47.149Z,22.89
2022-10-22T13:10:36.759Z,21.82
2022-10-22T13:13:06.869Z,22.45
2022-10-22T13:15:38.010Z,22.78
2022-10-22T13:18:17.468Z,23.98
2022-10-22T13:21:03.087Z,23.44
2022-10-22T13:23:34.545Z,23.44
2022-10-22T13:26:11.612Z,22.91
2022-10-22T13:28:40.641Z,22.62
2022-10-22T13:31:17.187Z,21.85
2022-10-22T13:33:47.109Z,22.10
2022-10-22T13:36:16.123Z,22.91
2022-10-22T13:38:44.489Z,22.84
2022-10-22T13:41:28.400Z,22.62
2022-10-22T13:43:55.737Z,22.49
2022-10-22T13:46:24.342Z,23.27
2022-10-22T13:48:53.783Z,23.88
2022-10-22T13:51:27.563Z,23.56
2022-10-22T13:53:54.791Z,23.87
2022-10-22T13:56:40.388Z,24.88
2022-10-22T13:59:08.231Z,24.16
2022-10-22T14:01:37.429Z,24.72
2022-10-22T14:04:07.681Z,24.78
2022-10-22T14:09:11.992Z,25.65
2022-10-22T14:11:39.067Z,25.96
2022-10-22T14:14:09.110Z,26.01
2022-10-22T14:16:40.216Z,25.47
2022-10-22T14:19:14.483Z,26.68
2022-10-22T14:21:41.364Z,26.43
2022-10-22T14:24:12.907Z,27.81
2022-10-22T14:26:41.043Z,27.23
2022-10-22T14:29:10.147Z,27.41
2022-10-22T14:34:15.326Z,27.36
2022-10-22T14:36:44.946Z,28.36
2022-10-22T14:39:12.775Z,28.77
2022-10-22T14:41:41.331Z,28.03
2022-10-22T14:44:14.042Z,28.58
2022-10-22T14:46:42.732Z,28.67
2022-10-22T14:49:09.666Z,29.30
2022-10-22T14:51:36.682Z,29.10
2022-10-22T14:54:03.540Z,28.79
2022-10-22T14:56:30.944Z,29.64
2022-10-22T14:58:57.687Z,28.84
2022-10-22T15:01:24.540Z,29.04
2022-10-22T15:03:51.254Z,28.92
2022-10-22T15:06:18.061Z,28.51
2022-10-22T15:08:45.616Z,29.23
2022-10-22T15:11:13.422Z,30.13
2022-10-22T15:13:41.403Z,30.39
2022-10-22T15:16:10.444Z,29.84
2022-10-22T15:18:37.589Z,30.19
2022-10-22T15:21:14.325Z,29.78
2022-10-22T15:23:41.400Z,29.46
2022-10-22T15:26:12.901Z,30.03
2022-10-22T15:28:41.218Z,29.57
2022-10-22T15:31:08.775Z,29.61
2022-10-22T15:33:36.138Z,30.97
2022-10-22T15:36:11.814Z,32.00
2022-10-22T15:38:38.558Z,32.61
2022-10-22T15:41:07.653Z,32.16
2022-10-22T15:43:34.931Z,33.05
2022-10-22T15:46:14.977Z,33.01
2022-10-22T15:48:42.451Z,33.20
2022-10-22T15:51:14.785Z,32.97
2022-10-22T15:53:42.289Z,33.04
2022-10-22T15:56:11.692Z,33.20
2022-10-22T15:58:39.016Z,33.07
2022-10-22T16:01:12.035Z,33.71
2022-10-22T16:03:39.844Z,34.96
2022-10-22T16:06:10.509Z,35.69
2022-10-22T16:08:38.453Z,34.81
2022-10-22T16:11:05.687Z,33.97
2022-10-22T16:13:32.407Z,34.01
2022-10-22T16:15:59.246Z,34.48
2022-10-22T16:18:25.924Z,35.29
2022-10-22T16:20:52.894Z,35.84
2022-10-22T16:23:20.916Z,35.33
2022-10-22T16:25:47.814Z,37.22
2022-10-22T16:28:14.800Z,37.08
2022-10-22T16:30:41.862Z,37.42
2022-10-22T16:33:11.104Z,37.37
2022-10-22T16:35:42.405Z,36.86
2022-10-22T16:38:10.980Z,36.72
2022-10-22T16:40:38.175Z,37.45
2022-10-22T16:43:05.790Z,37.16
2022-10-22T16:45:32.465Z,36.71
2022-10-22T16:47:59.667Z,37.37
2022-10-22T16:50:26.711Z,36.79
2022-10-22T16:52:53.553Z,37.14
2022-10-22T16:55:20.570Z,36.99
2022-10-22T16:57:51.933Z,37.04
2022-10-22T17:00:19.573Z,37.33
2022-10-22T17:02:59.830Z,37.89
2022-10-22T17:05:26.772Z,37.14
2022-10-22T17:07:53.692Z,37.10
2022-10-22T17:10:20.942Z,36.50
2022-10-22T17:12:48.345Z,36.47
2022-10-22T17:15:15.493Z,36.69
2022-10-22T17:17:42.476Z,37.13
2022-10-22T17:20:10.569Z,37.83
2022-10-22T17:22:37.442Z,37.61
2022-10-22T17:25:12.421Z,37.24
2022-10-22T17:27:40.296Z,36.71
2022-10-22T17:30:08.645Z,36.60
2022-10-22T17:32:38.254Z,36.26
2022-10-22T17:35:06.781Z,35.90
2022-10-22T17:37:34.535Z,36.96
2022-10-22T17:40:02.903Z,36.90
2022-10-22T17:42:30.051Z,37.59
2022-10-22T17:44:57.311Z,37.45
2022-10-22T17:47:24.187Z,37.92
2022-10-22T17:49:51.169Z,37.69
2022-10-22T17:52:18.153Z,38.02
2022-10-22T17:54:44.927Z,39.15
2022-10-22T17:57:12.699Z,39.75
2022-10-22T17:59:39.535Z,39.56
2022-10-22T18:02:07.027Z,39.13
2022-10-22T18:04:35.633Z,39.00
2022-10-22T18:07:02.361Z,39.36
2022-10-22T18:09:29.144Z,39.26
2022-10-22T18:11:55.940Z,39.90
2022-10-22T18:14:23.728Z,40.08
2022-10-22T18:16:51.296Z,39.33
2022-10-22T18:19:21.859Z,40.77
2022-10-22T18:21:49.035Z,40.78
2022-10-22T18:24:16.809Z,39.62
2022-10-22T18:26:44.246Z,39.89
2022-10-22T18:29:15.270Z,39.50
2022-10-22T18:31:42.108Z,39.73
2022-10-22T18:34:09.031Z,39.97
2022-10-22T18:36:36.820Z,40.70
2022-10-22T18:39:05.094Z,41.14
2022-10-22T18:41:33.429Z,41.37
2022-10-22T18:44:02.659Z,40.96
2022-10-22T18:46:32.156Z,41.83
2022-10-22T18:48:59.155Z,41.71
2022-10-22T18:51:30.112Z,40.87
2022-10-22T18:54:05.260Z,41.05
2022-10-22T18:56:44.909Z,40.47
2022-10-22T18:59:23.905Z,40.29
2022-10-22T19:01:54.595Z,39.83
2022-10-22T19:04:21.812Z,39.99
2022-10-22T19:06:48.663Z,40.64
2022-10-22T19:09:15.968Z,41.23
2022-10-22T19:11:45.276Z,40.69
2022-10-22T19:14:14.623Z,41.08
2022-10-22T19:16:41.576Z,41.01
2022-10-22T19:19:08.582Z,40.85
2022-10-22T19:21:36.501Z,41.13
2022-10-22T19:24:03.464Z,42.64
2022-10-22T19:26:30.734Z,42.19
2022-10-22T19:28:58.758Z,41.46
2022-10-22T19:31:26.915Z,41.51
2022-10-22T19:33:56.611Z,41.95
2022-10-22T19:36:25.424Z,41.57
2022-10-22T19:38:52.521Z,43.93
2022-10-22T19:41:21.225Z,43.08
2022-10-22T19:43:50.527Z,44.71
2022-10-22T19:46:18.508Z,43.03
2022-10-22T19:51:22.654Z,42.48
2022-10-22T19:53:51.267Z,42.03
2022-10-22T19:56:20.195Z,41.46
2022-10-22T19:58:47.685Z,41.18
2022-10-22T20:01:16.676Z,41.17
2022-10-22T20:03:43.852Z,41.18
2022-10-22T20:06:12.837Z,41.59
2022-10-22T20:08:40.306Z,41.68
2022-10-22T20:11:13.448Z,41.53
2022-10-22T20:16:07.251Z,41.78
2022-10-22T20:18:34.280Z,41.14
2022-10-22T20:21:08.701Z,40.79
2022-10-22T20:23:36.705Z,41.60
2022-10-22T20:26:05.123Z,41.40
2022-10-22T20:28:32.450Z,41.80
2022-10-22T20:30:59.243Z,41.33
2022-10-22T20:33:26.092Z,41.44
2022-10-22T20:36:05.173Z,41.04
2022-10-22T20:38:32.234Z,41.47
2022-10-22T20:41:07.588Z,41.59
2022-10-22T20:43:34.336Z,41.75
2022-10-22T20:46:01.580Z,41.85
2022-10-22T20:48:31.378Z,41.39
2022-10-22T20:51:01.739Z,41.50
2022-10-22T20:53:28.652Z,41.77
2022-10-22T20:55:59.019Z,44.53
2022-10-22T20:58:27.568Z,43.73
2022-10-22T21:00:55.445Z,44.49
2022-10-22T21:03:22.709Z,44.64
2022-10-22T21:05:49.992Z,46.48
2022-10-22T21:08:17.774Z,45.11
2022-10-22T21:10:49.557Z,44.94
2022-10-22T21:13:19.475Z,45.67
2022-10-22T21:15:46.287Z,45.34
2022-10-22T21:18:13.047Z,44.62
2022-10-22T21:20:40.928Z,44.41
2022-10-22T21:23:08.749Z,46.64
2022-10-22T21:25:38.478Z,45.92
2022-10-22T21:28:08.657Z,46.48
2022-10-22T21:30:35.447Z,47.37
2022-10-22T21:33:02.190Z,45.54
2022-10-22T21:35:29.049Z,45.50
2022-10-22T21:37:55.922Z,45.11
2022-10-22T21:40:22.719Z,44.88
2022-10-22T21:42:50.824Z,45.07
2022-10-22T21:45:21.387Z,44.61
2022-10-22T21:47:49.135Z,43.68
2022-10-22T21:50:16.094Z,43.95
2022-10-22T21:52:42.839Z,44.86
2022-10-22T21:55:10.258Z,45.96
2022-10-22T21:57:36.968Z,44.92
2022-10-22T22:00:06.383Z,44.46
2022-10-22T22:02:33.549Z,44.55
2022-10-22T22:05:00.340Z,44.78
2022-10-22T22:07:27.116Z,44.33
2022-10-22T22:09:54.052Z,44.82
2022-10-22T22:12:21.236Z,43.97
2022-10-22T22:14:48.010Z,44.30
2022-10-22T22:17:16.533Z,44.84
2022-10-22T22:19:43.298Z,45.27
2022-10-22T22:22:10.347Z,46.82
2022-10-22T22:24:39.761Z,47.49
2022-10-22T22:27:06.669Z,46.46
2022-10-22T22:29:35.566Z,46.97
2022-10-22T22:32:02.381Z,46.36
2022-10-22T22:34:30.205Z,46.34
2022-10-22T22:36:57.027Z,47.06
2022-10-22T22:39:23.801Z,46.67
2022-10-22T22:41:50.731Z,45.85
2022-10-22T22:44:17.984Z,45.53
2022-10-22T22:46:44.736Z,45.63
2022-10-22T22:49:13.215Z,45.39
2022-10-22T22:51:40.121Z,45.28
2022-10-22T22:54:06.933Z,44.95
2022-10-22T22:56:34.694Z,46.17
2022-10-22T22:59:02.475Z,46.39
2022-10-22T23:01:31.784Z,46.04
2022-10-22T23:04:04.354Z,46.23
2022-10-22T23:06:33.843Z,45.82
2022-10-22T23:09:00.749Z,46.50
2022-10-22T23:11:28.015Z,45.96
2022-10-22T23:14:00.729Z,46.71
2022-10-22T23:16:31.094Z,46.49
2022-10-22T23:18:58.226Z,46.14
2022-10-22T23:21:31.693Z,46.30
2022-10-22T23:24:04.494Z,46.83
2022-10-22T23:26:34.129Z,46.41
2022-10-22T23:29:05.810Z,48.44
2022-10-22T23:31:32.710Z,47.60
2022-10-22T23:33:59.676Z,46.71
2022-10-22T23:36:27.224Z,45.86
2022-10-22T23:38:54.482Z,46.27
2022-10-22T23:41:21.674Z,47.33
2022-10-22T23:43:50.333Z,48.30
2022-10-22T23:46:17.015Z,47.55
2022-10-22T23:48:44.022Z,47.18
2022-10-22T23:51:15.879Z,46.50
2022-10-22T23:53:44.596Z,46.73
2022-10-22T23:56:16.560Z,47.43
2022-10-22T23:58:44.547Z,47.28
